Time;durP1;ratioP1;P1;durP2;ratioP2;P2;SDS_P1;SDS_P2;PMS_P1;PMS_P2;Temp;Humidity;BMP_temperature;BMP_pressure;BME280_temperature;BME280_humidity;BME280_pressure;Samples;Min_cycle;Max_cycle;Signal;HPM_P1;HPM_P2
2021/12/03 00:01:54;;;;;;;4.63;3.22;;;;;;;;;;5016137;28;20059;-62
2021/12/03 00:04:20;;;;;;;6.32;3.70;;;;;;;;;;5016117;28;20156;-62
2021/12/03 00:06:45;;;;;;;5.60;3.38;;;;;;;;;;5015984;28;20488;-62
2021/12/03 00:09:11;;;;;;;5.93;3.00;;;;;;;;;;4998479;28;20185;-63
2021/12/03 00:11:36;;;;;;;4.40;3.33;;;;;;;;;;5015382;28;20034;-68
2021/12/03 00:14:04;;;;;;;5.72;3.10;;;;;;;;;;5014945;28;20123;-69
2021/12/03 00:16:30;;;;;;;4.25;2.65;;;;;;;;;;5015758;28;20038;-62
2021/12/03 00:18:56;;;;;;;4.82;2.55;;;;;;;;;;5015622;28;20476;-61
2021/12/03 00:21:22;;;;;;;3.92;2.75;;;;;;;;;;5014494;28;20079;-61
2021/12/03 00:23:48;;;;;;;4.38;2.85;;;;;;;;;;5015700;28;20464;-61
2021/12/03 00:26:13;;;;;;;4.40;2.80;;;;;;;;;;5015756;28;20042;-61
2021/12/03 00:28:39;;;;;;;5.97;3.15;;;;;;;;;;5015739;28;20342;-63
2021/12/03 00:31:05;;;;;;;5.80;2.72;;;;;;;;;;5015328;28;20022;-64
2021/12/03 00:33:57;;;;;;;3.38;2.67;;;;;;;;;;5014350;28;20065;-65
2021/12/03 00:36:36;;;;;;;6.22;2.38;;;;;;;;;;4998845;28;20053;-62
2021/12/03 00:39:04;;;;;;;4.38;2.70;;;;;;;;;;5013407;28;20029;-62
2021/12/03 00:41:35;;;;;;;5.20;2.55;;;;;;;;;;5015177;28;20121;-62
2021/12/03 00:44:00;;;;;;;3.85;2.83;;;;;;;;;;5014195;28;20044;-62
2021/12/03 00:46:26;;;;;;;4.10;2.70;;;;;;;;;;5015505;28;20113;-63
2021/12/03 00:48:53;;;;;;;4.82;2.72;;;;;;;;;;5015436;28;20084;-63
2021/12/03 00:51:19;;;;;;;5.97;3.20;;;;;;;;;;5015362;28;20030;-63
2021/12/03 00:53:45;;;;;;;4.68;2.72;;;;;;;;;;5014920;28;20030;-63
2021/12/03 00:56:11;;;;;;;3.80;2.65;;;;;;;;;;4997250;28;20411;-68
2021/12/03 00:58:36;;;;;;;4.30;2.63;;;;;;;;;;5013526;28;20036;-69
2021/12/03 01:01:03;;;;;;;4.47;2.90;;;;;;;;;;5014839;28;20022;-68
2021/12/03 01:03:28;;;;;;;4.80;2.90;;;;;;;;;;5014915;28;20411;-68
2021/12/03 01:05:55;;;;;;;3.95;2.38;;;;;;;;;;5014934;28;20017;-69
2021/12/03 01:08:20;;;;;;;3.50;2.25;;;;;;;;;;5014579;28;20037;-68
2021/12/03 01:10:46;;;;;;;3.95;2.60;;;;;;;;;;5014687;28;20160;-68
2021/12/03 01:13:12;;;;;;;3.67;2.60;;;;;;;;;;5014684;28;20452;-69
2021/12/03 01:15:52;;;;;;;3.63;2.25;;;;;;;;;;5014587;28;20113;-69
2021/12/03 01:18:45;;;;;;;6.13;3.10;;;;;;;;;;4998884;28;20041;-69
2021/12/03 01:21:39;;;;;;;4.25;3.13;;;;;;;;;;4999232;28;20496;-70
2021/12/03 01:24:28;;;;;;;6.72;3.97;;;;;;;;;;4999102;28;20116;-70
2021/12/03 01:27:18;;;;;;;6.28;3.70;;;;;;;;;;5013284;28;20030;-69
2021/12/03 01:30:03;;;;;;;6.80;3.78;;;;;;;;;;5013558;28;20049;-70
2021/12/03 01:32:28;;;;;;;4.40;2.75;;;;;;;;;;5014351;28;20392;-69
2021/12/03 01:34:54;;;;;;;5.63;3.08;;;;;;;;;;5013883;28;20061;-69
2021/12/03 01:37:19;;;;;;;4.70;2.72;;;;;;;;;;5014316;28;20061;-69
2021/12/03 01:40:01;;;;;;;4.30;2.75;;;;;;;;;;5014325;28;20022;-70
2021/12/03 01:42:54;;;;;;;4.43;3.00;;;;;;;;;;5013377;28;20061;-70
2021/12/03 01:45:34;;;;;;;2.55;2.22;;;;;;;;;;4998917;28;20026;-70
2021/12/03 01:48:27;;;;;;;3.30;2.17;;;;;;;;;;5013081;28;20113;-70
2021/12/03 01:51:26;;;;;;;3.53;2.35;;;;;;;;;;4998268;28;20069;-71
2021/12/03 01:53:58;;;;;;;3.10;2.22;;;;;;;;;;5013040;28;20120;-63
2021/12/03 01:56:25;;;;;;;2.95;2.28;;;;;;;;;;5012799;28;20109;-63
2021/12/03 01:58:53;;;;;;;3.90;2.20;;;;;;;;;;5012674;28;20034;-62
2021/12/03 02:01:20;;;;;;;3.25;2.15;;;;;;;;;;5013918;28;20029;-62
2021/12/03 02:03:47;;;;;;;2.83;2.03;;;;;;;;;;5013781;28;20037;-63
2021/12/03 02:06:13;;;;;;;2.90;1.88;;;;;;;;;;4996101;28;20436;-63
2021/12/03 02:08:38;;;;;;;3.55;1.90;;;;;;;;;;5013786;28;20034;-62
2021/12/03 02:11:05;;;;;;;2.58;2.00;;;;;;;;;;5013681;28;20071;-62
2021/12/03 02:13:50;;;;;;;4.57;2.40;;;;;;;;;;5013695;28;20053;-63
2021/12/03 02:16:52;;;;;;;3.40;2.35;;;;;;;;;;5013282;28;20448;-63
2021/12/03 02:19:29;;;;;;;2.42;2.17;;;;;;;;;;4997974;28;20117;-62
2021/12/03 02:21:54;;;;;;;4.65;2.33;;;;;;;;;;5013825;28;20034;-62
2021/12/03 02:24:22;;;;;;;4.10;2.70;;;;;;;;;;5013624;28;20014;-62
2021/12/03 02:26:47;;;;;;;3.97;2.58;;;;;;;;;;5014102;28;20091;-62
2021/12/03 02:29:13;;;;;;;4.93;2.33;;;;;;;;;;5013538;28;20018;-62
2021/12/03 02:31:38;;;;;;;3.30;2.25;;;;;;;;;;5013583;28;20388;-62
2021/12/03 02:34:05;;;;;;;3.65;2.33;;;;;;;;;;5013108;28;20041;-62
2021/12/03 02:36:30;;;;;;;4.45;2.33;;;;;;;;;;5013645;28;20116;-62
2021/12/03 02:38:56;;;;;;;3.78;2.50;;;;;;;;;;5013384;28;20164;-62
2021/12/03 02:41:21;;;;;;;4.05;2.20;;;;;;;;;;5013387;28;20525;-62
2021/12/03 02:43:47;;;;;;;4.30;2.60;;;;;;;;;;5012258;28;20023;-63
2021/12/03 02:46:12;;;;;;;4.47;2.90;;;;;;;;;;5013492;28;20025;-63
2021/12/03 02:48:38;;;;;;;2.58;2.35;;;;;;;;;;5013621;28;20014;-63
2021/12/03 02:51:04;;;;;;;4.40;2.88;;;;;;;;;;5013142;28;20041;-68
2021/12/03 02:53:30;;;;;;;5.05;2.50;;;;;;;;;;5013289;28;20073;-68
2021/12/03 02:55:56;;;;;;;3.95;2.17;;;;;;;;;;5013268;28;20468;-69
2021/12/03 02:58:22;;;;;;;2.30;2.10;;;;;;;;;;5013122;28;20113;-68
2021/12/03 03:00:49;;;;;;;3.17;2.08;;;;;;;;;;5013315;28;20061;-68
2021/12/03 03:03:14;;;;;;;4.00;2.50;;;;;;;;;;5016207;28;20024;-68
2021/12/03 03:05:40;;;;;;;4.47;2.58;;;;;;;;;;5015844;28;20192;-68
2021/12/03 03:08:05;;;;;;;4.95;2.40;;;;;;;;;;5017078;28;20057;-68
2021/12/03 03:10:35;;;;;;;4.40;2.55;;;;;;;;;;5016964;28;20472;-67
2021/12/03 03:13:01;;;;;;;4.80;2.92;;;;;;;;;;5016965;28;20488;-68
2021/12/03 03:15:27;;;;;;;5.50;2.58;;;;;;;;;;5016797;28;20128;-68
2021/12/03 03:17:53;;;;;;;3.45;2.50;;;;;;;;;;5015549;28;20026;-68
2021/12/03 03:20:19;;;;;;;4.15;2.78;;;;;;;;;;5015511;28;20495;-68
2021/12/03 03:22:47;;;;;;;3.00;2.47;;;;;;;;;;5015488;28;20026;-67
2021/12/03 03:25:14;;;;;;;4.03;2.33;;;;;;;;;;5016986;28;20034;-67
2021/12/03 03:27:40;;;;;;;5.43;2.30;;;;;;;;;;5016886;28;20025;-67
2021/12/03 03:30:08;;;;;;;6.63;2.83;;;;;;;;;;5016648;28;20048;-67
2021/12/03 03:32:34;;;;;;;3.55;2.40;;;;;;;;;;4999111;28;20053;-67
2021/12/03 03:35:00;;;;;;;3.03;1.83;;;;;;;;;;5016409;28;20136;-67
2021/12/03 03:37:25;;;;;;;8.02;2.00;;;;;;;;;;5016516;28;20120;-67
2021/12/03 03:39:51;;;;;;;3.35;2.38;;;;;;;;;;5016354;28;20034;-68
2021/12/03 03:42:16;;;;;;;3.97;2.80;;;;;;;;;;5015212;28;20068;-68
2021/12/03 03:44:42;;;;;;;2.58;2.20;;;;;;;;;;5016515;28;20022;-68
2021/12/03 03:47:08;;;;;;;2.67;2.00;;;;;;;;;;5016676;28;20072;-63
2021/12/03 03:49:34;;;;;;;4.00;2.30;;;;;;;;;;5014983;28;20041;-63
2021/12/03 03:52:00;;;;;;;3.72;2.25;;;;;;;;;;5015023;28;20081;-63
2021/12/03 03:54:25;;;;;;;3.60;2.22;;;;;;;;;;5015246;28;20022;-63
2021/12/03 03:56:51;;;;;;;3.78;2.03;;;;;;;;;;5016041;28;20018;-62
2021/12/03 03:59:17;;;;;;;2.25;2.03;;;;;;;;;;5015854;28;20034;-63
2021/12/03 04:01:46;;;;;;;3.95;2.10;;;;;;;;;;5014762;28;20033;-63
2021/12/03 04:04:12;;;;;;;3.70;2.22;;;;;;;;;;5014559;28;20037;-62
2021/12/03 04:06:38;;;;;;;5.00;2.42;;;;;;;;;;5014537;28;20018;-63
2021/12/03 04:09:03;;;;;;;2.85;2.10;;;;;;;;;;5014687;28;20120;-62
2021/12/03 04:11:29;;;;;;;3.17;2.30;;;;;;;;;;5014612;28;20026;-62
2021/12/03 04:13:54;;;;;;;4.55;2.22;;;;;;;;;;5015001;28;20108;-68
2021/12/03 04:16:20;;;;;;;3.55;2.20;;;;;;;;;;5015739;28;20022;-68
2021/12/03 04:18:47;;;;;;;7.60;2.50;;;;;;;;;;5014511;28;20045;-63
2021/12/03 04:21:12;;;;;;;3.13;2.08;;;;;;;;;;5015564;28;20105;-62
2021/12/03 04:23:38;;;;;;;4.07;2.22;;;;;;;;;;5015739;28;20057;-63
2021/12/03 04:26:03;;;;;;;3.60;2.50;;;;;;;;;;5015799;28;20024;-62
2021/12/03 04:28:29;;;;;;;3.17;2.28;;;;;;;;;;5015520;28;20069;-63
2021/12/03 04:30:54;;;;;;;4.35;2.35;;;;;;;;;;5015347;28;20106;-62
2021/12/03 04:33:20;;;;;;;4.20;2.28;;;;;;;;;;5015303;28;20342;-63
2021/12/03 04:35:47;;;;;;;2.88;1.73;;;;;;;;;;5015076;28;20042;-63
2021/12/03 04:38:13;;;;;;;2.65;2.15;;;;;;;;;;5015351;28;20056;-64
2021/12/03 04:40:39;;;;;;;3.00;1.98;;;;;;;;;;5014113;28;20453;-63
2021/12/03 04:43:05;;;;;;;3.08;2.13;;;;;;;;;;5013624;28;20045;-63
2021/12/03 04:45:31;;;;;;;2.00;1.90;;;;;;;;;;4997596;28;20025;-63
2021/12/03 04:47:58;;;;;;;2.42;2.22;;;;;;;;;;5015523;28;20058;-63
2021/12/03 04:50:26;;;;;;;3.80;2.20;;;;;;;;;;5015083;28;20030;-63
2021/12/03 04:52:51;;;;;;;2.80;2.13;;;;;;;;;;5015066;28;20041;-63
2021/12/03 04:55:17;;;;;;;3.17;2.38;;;;;;;;;;5013797;28;20025;-63
2021/12/03 04:57:43;;;;;;;3.28;2.30;;;;;;;;;;5014752;28;20040;-63
2021/12/03 05:00:11;;;;;;;3.63;2.10;;;;;;;;;;5014831;28;20424;-63
2021/12/03 05:02:37;;;;;;;3.15;2.20;;;;;;;;;;4997404;28;20026;-62
2021/12/03 05:05:05;;;;;;;3.75;2.40;;;;;;;;;;5013972;28;20112;-63
2021/12/03 05:07:43;;;;;;;4.20;2.35;;;;;;;;;;5014846;28;20084;-62
2021/12/03 05:10:10;;;;;;;3.38;2.20;;;;;;;;;;5013722;28;20492;-62
2021/12/03 05:12:36;;;;;;;3.97;2.72;;;;;;;;;;5014751;28;20028;-65
2021/12/03 05:15:02;;;;;;;4.53;2.63;;;;;;;;;;5014894;28;20026;-69
2021/12/03 05:17:28;;;;;;;3.90;2.78;;;;;;;;;;5014551;28;20384;-69
2021/12/03 05:19:53;;;;;;;3.42;2.50;;;;;;;;;;5014563;28;20075;-64
2021/12/03 05:22:19;;;;;;;3.05;2.45;;;;;;;;;;5014395;28;20018;-62
2021/12/03 05:24:45;;;;;;;2.97;2.55;;;;;;;;;;5013363;28;20030;-62
2021/12/03 05:27:13;;;;;;;4.55;2.25;;;;;;;;;;5014376;28;20020;-63
2021/12/03 05:29:40;;;;;;;2.78;1.75;;;;;;;;;;5014241;28;20507;-63
2021/12/03 05:32:06;;;;;;;3.67;2.40;;;;;;;;;;5012913;28;20033;-62
2021/12/03 05:34:32;;;;;;;3.67;2.25;;;;;;;;;;5015124;28;20052;-62
2021/12/03 05:36:58;;;;;;;3.38;2.38;;;;;;;;;;5022658;28;20025;-63
2021/12/03 05:39:23;;;;;;;3.70;2.13;;;;;;;;;;5023137;28;20026;-62
2021/12/03 05:41:49;;;;;;;2.63;2.20;;;;;;;;;;5024015;28;20048;-62
2021/12/03 05:44:14;;;;;;;3.40;2.40;;;;;;;;;;5022519;28;20026;-63
2021/12/03 05:46:40;;;;;;;2.00;1.80;;;;;;;;;;5022537;28;20064;-62
2021/12/03 05:49:06;;;;;;;3.35;2.28;;;;;;;;;;5025365;28;20432;-62
2021/12/03 05:51:32;;;;;;;3.40;2.30;;;;;;;;;;5022988;28;20033;-62
2021/12/03 05:53:57;;;;;;;1.77;1.67;;;;;;;;;;5030975;28;20044;-62
2021/12/03 05:56:23;;;;;;;3.03;2.05;;;;;;;;;;5033728;28;20021;-67
2021/12/03 05:58:49;;;;;;;2.28;1.88;;;;;;;;;;5033612;28;20057;-67
2021/12/03 06:01:16;;;;;;;3.47;2.05;;;;;;;;;;5032396;28;20431;-68
2021/12/03 06:03:41;;;;;;;2.50;1.65;;;;;;;;;;5030765;28;20061;-67
2021/12/03 06:06:07;;;;;;;2.33;2.03;;;;;;;;;;5030512;28;20402;-67
2021/12/03 06:08:33;;;;;;;2.90;2.00;;;;;;;;;;5029210;28;20072;-68
2021/12/03 06:10:58;;;;;;;3.03;1.90;;;;;;;;;;5029911;28;20103;-68
2021/12/03 06:13:24;;;;;;;3.35;1.90;;;;;;;;;;5030068;28;20430;-69
2021/12/03 06:15:49;;;;;;;2.60;1.75;;;;;;;;;;5028362;28;20383;-69
2021/12/03 06:18:15;;;;;;;3.85;2.25;;;;;;;;;;5026422;28;20450;-68
2021/12/03 06:20:40;;;;;;;2.60;2.00;;;;;;;;;;5016207;28;20441;-68
2021/12/03 06:23:06;;;;;;;3.38;1.83;;;;;;;;;;5009930;28;20030;-68
2021/12/03 06:25:31;;;;;;;2.58;1.90;;;;;;;;;;5008722;28;20018;-68
2021/12/03 06:27:58;;;;;;;2.20;1.55;;;;;;;;;;5009880;28;20136;-68
2021/12/03 06:30:24;;;;;;;2.45;1.55;;;;;;;;;;5008788;28;20057;-68
2021/12/03 06:32:51;;;;;;;1.75;1.40;;;;;;;;;;5008292;28;20072;-68
2021/12/03 06:35:17;;;;;;;3.60;2.38;;;;;;;;;;5007954;28;20489;-68
2021/12/03 06:37:43;;;;;;;4.32;2.70;;;;;;;;;;5012255;28;20079;-68
2021/12/03 06:40:19;;;;;;;2.40;2.03;;;;;;;;;;5012651;28;20057;-68
2021/12/03 06:42:45;;;;;;;2.85;2.00;;;;;;;;;;5014216;28;20034;-68
2021/12/03 06:45:11;;;;;;;3.50;2.05;;;;;;;;;;5014073;28;20404;-68
2021/12/03 06:47:37;;;;;;;3.60;2.13;;;;;;;;;;5013705;28;20041;-68
2021/12/03 06:50:08;;;;;;;3.63;1.98;;;;;;;;;;5016404;28;20032;-68
2021/12/03 06:52:38;;;;;;;2.50;1.95;;;;;;;;;;5024039;28;20504;-69
2021/12/03 06:55:05;;;;;;;2.33;2.10;;;;;;;;;;5022700;28;20030;-68
2021/12/03 06:57:31;;;;;;;3.70;2.38;;;;;;;;;;5022465;28;20017;-68
2021/12/03 06:59:56;;;;;;;2.08;1.50;;;;;;;;;;5013525;28;20041;-68
2021/12/03 07:02:22;;;;;;;3.60;2.45;;;;;;;;;;5012284;28;20032;-68
2021/12/03 07:04:48;;;;;;;3.55;2.35;;;;;;;;;;5013560;28;20033;-67
2021/12/03 07:07:13;;;;;;;4.05;2.58;;;;;;;;;;5013171;28;20109;-68
2021/12/03 07:09:39;;;;;;;3.45;2.25;;;;;;;;;;5013530;28;20037;-68
2021/12/03 07:12:04;;;;;;;2.90;2.20;;;;;;;;;;5012078;28;20083;-67
2021/12/03 07:14:30;;;;;;;5.43;2.67;;;;;;;;;;5013408;28;20077;-67
2021/12/03 07:16:58;;;;;;;4.15;3.10;;;;;;;;;;5013088;28;20064;-68
2021/12/03 07:19:23;;;;;;;4.78;3.10;;;;;;;;;;5012354;28;20052;-68
2021/12/03 07:21:49;;;;;;;4.05;2.65;;;;;;;;;;5011012;28;20460;-68
2021/12/03 07:24:14;;;;;;;3.75;2.20;;;;;;;;;;5012157;28;20030;-68
2021/12/03 07:26:40;;;;;;;3.33;2.33;;;;;;;;;;5013083;28;20022;-69
2021/12/03 07:29:05;;;;;;;4.15;2.95;;;;;;;;;;5012925;28;20029;-68
2021/12/03 07:31:31;;;;;;;3.78;2.80;;;;;;;;;;5012905;28;20030;-68
2021/12/03 07:33:56;;;;;;;2.45;2.00;;;;;;;;;;5011219;28;20057;-68
2021/12/03 07:36:22;;;;;;;4.00;2.40;;;;;;;;;;5011529;28;20083;-68
2021/12/03 07:38:47;;;;;;;3.03;2.72;;;;;;;;;;5010139;28;20117;-69
2021/12/03 07:41:13;;;;;;;2.08;1.85;;;;;;;;;;5012836;28;20041;-68
2021/12/03 07:43:39;;;;;;;5.18;3.13;;;;;;;;;;5012979;28;20039;-68
2021/12/03 07:46:04;;;;;;;3.88;2.65;;;;;;;;;;5017399;28;20025;-63
2021/12/03 07:48:30;;;;;;;5.38;3.42;;;;;;;;;;5020021;28;20041;-63
2021/12/03 07:50:57;;;;;;;4.63;2.67;;;;;;;;;;5013524;28;20037;-63
2021/12/03 07:53:23;;;;;;;3.92;3.00;;;;;;;;;;5021611;28;20017;-63
2021/12/03 07:55:49;;;;;;;5.07;2.65;;;;;;;;;;5032211;28;20045;-63
2021/12/03 07:58:16;;;;;;;2.22;2.03;;;;;;;;;;5032443;28;20029;-63
2021/12/03 08:00:41;;;;;;;4.57;3.15;;;;;;;;;;5032586;28;20092;-63
2021/12/03 08:03:06;;;;;;;4.78;2.70;;;;;;;;;;5032450;28;20025;-63
2021/12/03 08:05:32;;;;;;;2.80;2.35;;;;;;;;;;5031865;28;20030;-63
2021/12/03 08:07:59;;;;;;;2.53;1.83;;;;;;;;;;5030562;28;20056;-63
2021/12/03 08:10:25;;;;;;;5.13;2.30;;;;;;;;;;5030968;28;20065;-63
2021/12/03 08:12:50;;;;;;;2.50;1.98;;;;;;;;;;5032250;28;20064;-63
2021/12/03 08:15:16;;;;;;;2.88;2.20;;;;;;;;;;5032503;28;20029;-63
2021/12/03 08:17:41;;;;;;;2.00;1.67;;;;;;;;;;5029978;28;20414;-63
2021/12/03 08:20:08;;;;;;;3.72;1.77;;;;;;;;;;5031848;28;20037;-64
2021/12/03 08:22:34;;;;;;;1.60;1.50;;;;;;;;;;5031991;28;20022;-63
2021/12/03 08:24:59;;;;;;;3.10;1.90;;;;;;;;;;5031829;28;20159;-63
2021/12/03 08:27:25;;;;;;;3.78;1.95;;;;;;;;;;5031861;28;20045;-63
2021/12/03 08:29:50;;;;;;;2.97;1.65;;;;;;;;;;5030056;28;20488;-63
2021/12/03 08:32:16;;;;;;;2.60;1.70;;;;;;;;;;5031612;28;20154;-64
2021/12/03 08:34:42;;;;;;;2.97;1.50;;;;;;;;;;5030918;28;20091;-63
2021/12/03 08:37:09;;;;;;;2.42;1.90;;;;;;;;;;5029846;28;20036;-64
2021/12/03 08:39:34;;;;;;;2.92;1.50;;;;;;;;;;5031764;28;20036;-63
2021/12/03 08:42:00;;;;;;;2.58;1.70;;;;;;;;;;5031929;28;20026;-63
2021/12/03 08:44:26;;;;;;;1.73;1.58;;;;;;;;;;5030384;28;20040;-63
2021/12/03 08:46:58;;;;;;;3.05;2.25;;;;;;;;;;5031504;28;20110;-63
2021/12/03 08:49:30;;;;;;;2.60;1.65;;;;;;;;;;5031567;28;20391;-64
2021/12/03 08:54:52;;;;;;;3.25;1.70;;;;;;;;;;5030115;28;20076;-64
2021/12/03 08:57:19;;;;;;;3.85;2.00;;;;;;;;;;5031458;28;20376;-63
2021/12/03 08:59:44;;;;;;;2.97;1.80;;;;;;;;;;5030788;28;20056;-64
2021/12/03 09:02:10;;;;;;;4.93;1.77;;;;;;;;;;5031277;28;20029;-64
2021/12/03 09:04:36;;;;;;;1.70;1.58;;;;;;;;;;5031310;28;20391;-63
2021/12/03 09:07:02;;;;;;;1.58;1.23;;;;;;;;;;5030723;28;20129;-63
2021/12/03 09:09:30;;;;;;;3.45;1.80;;;;;;;;;;5031415;28;20029;-64
2021/12/03 09:11:55;;;;;;;3.17;2.10;;;;;;;;;;5031329;28;20026;-63
2021/12/03 09:16:53;;;;;;;3.03;1.88;;;;;;;;;;5030423;28;20087;-64
2021/12/03 09:19:25;;;;;;;2.70;1.75;;;;;;;;;;5031509;28;20033;-63
2021/12/03 09:21:51;;;;;;;2.58;1.90;;;;;;;;;;5031222;28;20033;-64
2021/12/03 09:24:19;;;;;;;2.33;2.13;;;;;;;;;;5030945;28;20047;-63
2021/12/03 09:26:44;;;;;;;4.97;2.47;;;;;;;;;;5030648;28;20033;-64
2021/12/03 09:29:12;;;;;;;3.88;2.42;;;;;;;;;;5029243;28;20025;-63
2021/12/03 09:31:43;;;;;;;4.10;2.75;;;;;;;;;;5030866;28;20403;-68
2021/12/03 09:34:10;;;;;;;4.22;2.83;;;;;;;;;;5029915;28;20053;-68
2021/12/03 09:36:40;;;;;;;3.97;2.08;;;;;;;;;;5030601;28;20040;-69
2021/12/03 09:39:06;;;;;;;1.90;1.73;;;;;;;;;;5030123;28;20059;-68
2021/12/03 09:41:32;;;;;;;3.38;2.22;;;;;;;;;;5027715;28;20144;-69
2021/12/03 09:43:57;;;;;;;4.53;2.40;;;;;;;;;;5028498;28;20029;-69
2021/12/03 09:46:24;;;;;;;4.25;2.55;;;;;;;;;;5029798;28;20031;-69
2021/12/03 09:51:20;;;;;;;2.75;2.33;;;;;;;;;;5030409;28;20034;-68
2021/12/03 09:56:28;;;;;;;5.68;3.20;;;;;;;;;;5029987;28;20092;-68
2021/12/03 10:01:43;;;;;;;;;;;;;;;;;;5030541;28;20116;-68
2021/12/03 10:04:41;;;;;;;3.00;2.53;;;;;;;;;;5028450;28;19913;-68
2021/12/03 10:15:08;;;;;;;3.17;1.88;;;;;;;;;;5030005;28;20029;-69
2021/12/03 10:17:46;;;;;;;2.47;1.67;;;;;;;;;;5029628;28;20029;-68
2021/12/03 10:20:19;;;;;;;2.60;2.15;;;;;;;;;;5028375;28;20030;-68
2021/12/03 10:26:13;;;;;;;4.38;2.33;;;;;;;;;;5029621;28;20037;-70
2021/12/03 10:47:02;;;;;;;3.10;1.95;;;;;;;;;;5028277;28;20452;-68
2021/12/03 10:57:55;;;;;;;5.38;2.83;;;;;;;;;;5027821;28;20558;-69
2021/12/03 11:55:50;;;;;;;5.35;2.78;;;;;;;;;;5032874;28;20037;-63
2021/12/03 12:09:53;;;;;;;3.17;2.17;;;;;;;;;;5032319;28;20072;-67
2021/12/03 12:18:14;;;;;;;3.28;2.63;;;;;;;;;;5032851;28;20056;-68
2021/12/03 12:40:18;;;;;;;3.00;2.45;;;;;;;;;;5032438;28;20028;-68
2021/12/03 13:00:18;;;;;;;3.55;2.10;;;;;;;;;;5011698;28;20029;-69
2021/12/03 13:26:40;;;;;;;7.32;3.38;;;;;;;;;;5015155;28;20061;-68
2021/12/03 14:53:33;;;;;;;29.40;14.88;;;;;;;;;;4994398;28;20105;-67
2021/12/03 15:25:08;;;;;;;59.40;27.83;;;;;;;;;;5015327;28;20036;-67
2021/12/03 18:58:12;;;;;;;;;;;;;;;;;;5044577;28;20435;-67
2021/12/03 19:00:39;;;;;;;310.77;118.93;;;;;;;;;;5052446;28;19916;-67
2021/12/03 19:08:29;;;;;;;273.40;101.03;;;;;;;;;;5041508;28;20444;-70
2021/12/03 19:11:03;;;;;;;215.43;86.38;;;;;;;;;;5041488;28;20036;-68
2021/12/03 19:13:34;;;;;;;196.82;84.53;;;;;;;;;;5043395;28;20452;-69
2021/12/03 19:16:02;;;;;;;214.68;85.63;;;;;;;;;;5052966;28;20120;-68
2021/12/03 19:18:27;;;;;;;192.50;80.22;;;;;;;;;;5052668;28;20471;-69
2021/12/03 19:20:53;;;;;;;180.35;76.20;;;;;;;;;;5046800;28;20041;-68
2021/12/03 19:23:19;;;;;;;175.48;74.65;;;;;;;;;;5052810;28;20036;-68
2021/12/03 19:25:44;;;;;;;162.73;77.15;;;;;;;;;;5053030;28;20033;-69
2021/12/03 19:28:10;;;;;;;192.50;88.00;;;;;;;;;;5052693;28;20391;-69
2021/12/03 19:30:35;;;;;;;168.07;77.95;;;;;;;;;;5052805;28;20037;-69
2021/12/03 19:33:02;;;;;;;150.80;72.85;;;;;;;;;;5046874;28;20102;-69
2021/12/03 19:35:28;;;;;;;140.68;70.38;;;;;;;;;;5041119;28;20038;-69
2021/12/03 19:37:56;;;;;;;148.00;77.88;;;;;;;;;;5029961;28;20022;-70
2021/12/03 19:40:23;;;;;;;177.77;90.85;;;;;;;;;;5029467;28;20404;-69
2021/12/03 19:42:54;;;;;;;173.80;90.97;;;;;;;;;;5029160;28;20028;-70
2021/12/03 19:45:23;;;;;;;188.27;93.90;;;;;;;;;;5032606;28;20140;-69
2021/12/03 19:53:08;;;;;;;201.68;95.00;;;;;;;;;;5032209;28;20040;-69
2021/12/03 19:55:37;;;;;;;196.77;94.18;;;;;;;;;;5032925;28;20432;-69
2021/12/03 19:58:03;;;;;;;186.77;86.22;;;;;;;;;;5032184;28;20057;-69
2021/12/03 20:00:29;;;;;;;173.05;84.25;;;;;;;;;;5031259;28;20045;-70
2021/12/03 20:02:54;;;;;;;177.15;77.00;;;;;;;;;;5032618;28;20044;-70
2021/12/03 20:05:20;;;;;;;164.30;72.95;;;;;;;;;;5032584;28;20096;-69
2021/12/03 20:07:47;;;;;;;143.13;67.00;;;;;;;;;;5032342;28;20091;-69
2021/12/03 20:10:17;;;;;;;138.48;65.82;;;;;;;;;;5032663;28;20137;-69
2021/12/03 20:12:46;;;;;;;140.93;68.78;;;;;;;;;;5032316;28;20045;-70
2021/12/03 20:15:18;;;;;;;146.07;67.47;;;;;;;;;;5032452;28;20036;-69
2021/12/03 20:17:51;;;;;;;169.65;81.10;;;;;;;;;;5034325;28;20053;-69
2021/12/03 20:20:17;;;;;;;150.63;68.95;;;;;;;;;;5049806;28;20041;-69
2021/12/03 20:30:24;;;;;;;121.72;60.30;;;;;;;;;;5047953;28;20163;-70
2021/12/03 20:33:04;;;;;;;116.68;56.20;;;;;;;;;;5041830;28;20031;-69
2021/12/03 20:38:11;;;;;;;99.57;47.25;;;;;;;;;;5051983;28;20052;-67
2021/12/03 20:40:36;;;;;;;108.50;51.95;;;;;;;;;;5052025;28;20060;-66
2021/12/03 20:43:21;;;;;;;88.63;45.90;;;;;;;;;;5050174;28;20076;-67
2021/12/03 20:51:12;;;;;;;90.15;48.17;;;;;;;;;;5051333;28;20147;-67
2021/12/03 20:53:47;;;;;;;90.47;49.00;;;;;;;;;;5066895;28;20411;-68
2021/12/03 21:09:39;;;;;;;114.43;53.63;;;;;;;;;;5051710;28;20071;-67
2021/12/03 21:12:11;;;;;;;109.43;50.97;;;;;;;;;;5050054;28;20033;-67
2021/12/03 21:14:38;;;;;;;100.38;47.38;;;;;;;;;;5050956;28;20073;-67
2021/12/03 21:19:57;;;;;;;80.47;37.08;;;;;;;;;;5051091;28;20088;-67
2021/12/03 21:22:29;;;;;;;80.72;39.15;;;;;;;;;;5051153;28;20087;-66
2021/12/03 21:24:58;;;;;;;78.75;38.80;;;;;;;;;;5051082;28;20511;-66
2021/12/03 21:27:31;;;;;;;74.05;38.40;;;;;;;;;;5051182;28;20033;-67
2021/12/03 21:30:21;;;;;;;71.72;38.22;;;;;;;;;;5051206;28;20047;-67
2021/12/03 21:38:41;;;;;;;70.30;34.10;;;;;;;;;;5040785;28;20100;-67
2021/12/03 21:41:39;;;;;;;69.25;34.53;;;;;;;;;;5031120;28;20037;-67
2021/12/03 21:44:00;;;;;;;68.03;36.00;;;;;;;;;;5030747;28;20051;-66
2021/12/03 21:46:26;;;;;;;75.85;37.67;;;;;;;;;;5031023;28;20025;-67
2021/12/03 21:48:52;;;;;;;80.50;38.90;;;;;;;;;;5030929;28;20049;-66
2021/12/03 21:51:19;;;;;;;73.25;38.30;;;;;;;;;;5030803;28;20033;-66
2021/12/03 21:53:44;;;;;;;72.43;38.20;;;;;;;;;;5030701;28;20046;-66
2021/12/03 21:56:11;;;;;;;77.85;37.97;;;;;;;;;;5030621;28;20506;-66
2021/12/03 21:58:37;;;;;;;75.03;38.88;;;;;;;;;;5030214;28;20075;-67
2021/12/03 22:01:03;;;;;;;66.50;33.25;;;;;;;;;;5033622;28;20483;-67
2021/12/03 22:03:30;;;;;;;63.13;30.05;;;;;;;;;;5042038;28;20032;-66
2021/12/03 22:05:56;;;;;;;62.83;28.58;;;;;;;;;;5042448;28;20373;-66
2021/12/03 22:08:22;;;;;;;62.03;29.08;;;;;;;;;;5041674;28;20079;-67
2021/12/03 22:10:48;;;;;;;69.47;34.00;;;;;;;;;;5043308;28;20095;-68
2021/12/03 22:13:13;;;;;;;69.57;34.50;;;;;;;;;;5038765;28;20029;-68
2021/12/03 22:15:39;;;;;;;46.85;23.48;;;;;;;;;;5033805;28;20044;-67
2021/12/03 22:18:04;;;;;;;38.78;20.10;;;;;;;;;;5033209;28;20033;-67
2021/12/03 22:20:30;;;;;;;38.85;19.45;;;;;;;;;;5033740;28;20083;-66
2021/12/03 22:22:55;;;;;;;35.85;18.58;;;;;;;;;;5033464;28;20030;-67
2021/12/03 22:25:21;;;;;;;33.28;15.52;;;;;;;;;;5033282;28;20029;-67
2021/12/03 22:27:46;;;;;;;27.13;13.80;;;;;;;;;;5033322;28;20018;-66
2021/12/03 22:30:12;;;;;;;39.85;19.73;;;;;;;;;;5033119;28;20045;-66
2021/12/03 22:32:38;;;;;;;59.40;29.17;;;;;;;;;;5032471;28;20114;-66
2021/12/03 22:35:04;;;;;;;54.22;29.83;;;;;;;;;;5033524;28;20037;-67
2021/12/03 22:37:29;;;;;;;57.55;27.98;;;;;;;;;;5033255;28;20025;-67
2021/12/03 22:39:55;;;;;;;50.08;24.55;;;;;;;;;;5032782;28;20513;-66
2021/12/03 22:42:20;;;;;;;46.17;22.35;;;;;;;;;;5033491;28;20029;-66
2021/12/03 22:44:46;;;;;;;45.45;21.40;;;;;;;;;;5033202;28;20041;-66
2021/12/03 22:49:52;;;;;;;44.88;20.25;;;;;;;;;;5033213;28;20037;-66
2021/12/03 22:52:19;;;;;;;40.72;20.90;;;;;;;;;;5033197;28;20049;-67
2021/12/03 22:54:44;;;;;;;42.78;21.73;;;;;;;;;;5032864;28;20025;-66
2021/12/03 22:57:12;;;;;;;39.13;20.35;;;;;;;;;;5032716;28;20046;-66
2021/12/03 22:59:37;;;;;;;56.70;26.27;;;;;;;;;;5033089;28;20046;-66
2021/12/03 23:02:04;;;;;;;53.22;25.55;;;;;;;;;;5032891;28;20368;-66
2021/12/03 23:04:33;;;;;;;43.63;22.25;;;;;;;;;;5033290;28;20021;-67
2021/12/03 23:07:00;;;;;;;44.90;22.83;;;;;;;;;;5033195;28;20480;-66
2021/12/03 23:09:28;;;;;;;44.13;20.92;;;;;;;;;;5033266;28;20025;-67
2021/12/03 23:11:58;;;;;;;41.15;19.35;;;;;;;;;;5033000;28;20041;-66
2021/12/03 23:14:24;;;;;;;41.23;19.80;;;;;;;;;;5032980;28;20044;-66
2021/12/03 23:16:49;;;;;;;39.42;19.63;;;;;;;;;;5033328;28;20268;-66
2021/12/03 23:19:15;;;;;;;50.95;24.10;;;;;;;;;;5033952;28;20068;-62
2021/12/03 23:21:40;;;;;;;45.65;22.00;;;;;;;;;;5036967;28;20464;-63
2021/12/03 23:24:06;;;;;;;62.10;26.35;;;;;;;;;;5035477;28;20037;-66
2021/12/03 23:26:31;;;;;;;68.63;28.25;;;;;;;;;;5036746;28;20065;-66
2021/12/03 23:28:58;;;;;;;60.85;28.25;;;;;;;;;;5036621;28;20036;-65
2021/12/03 23:31:23;;;;;;;60.25;28.40;;;;;;;;;;5035184;28;20104;-65
2021/12/03 23:33:49;;;;;;;64.88;32.00;;;;;;;;;;5036562;28;20468;-61
2021/12/03 23:36:16;;;;;;;63.40;28.92;;;;;;;;;;5036124;28;20494;-62
2021/12/03 23:38:42;;;;;;;56.22;26.77;;;;;;;;;;5035087;28;20503;-61
2021/12/03 23:41:08;;;;;;;67.97;28.88;;;;;;;;;;5036576;28;20041;-61
2021/12/03 23:43:33;;;;;;;139.70;47.50;;;;;;;;;;5036564;28;20033;-60
2021/12/03 23:45:59;;;;;;;116.97;40.55;;;;;;;;;;5036449;28;20107;-60
2021/12/03 23:48:24;;;;;;;100.20;38.03;;;;;;;;;;5036230;28;20052;-61
2021/12/03 23:50:51;;;;;;;81.53;32.83;;;;;;;;;;5036293;28;20395;-60
2021/12/03 23:53:17;;;;;;;69.70;29.92;;;;;;;;;;5034926;28;20525;-60
2021/12/03 23:55:43;;;;;;;76.28;30.58;;;;;;;;;;5036067;28;20049;-61
2021/12/03 23:58:09;;;;;;;75.18;29.63;;;;;;;;;;5035693;28;20037;-66
